createdAt,value
2018-12-07T00:00:21.915Z,96.24
2018-12-07T00:02:49.302Z,97.33
2018-12-07T00:05:16.706Z,96.90
2018-12-07T00:07:44.103Z,97.20
2018-12-07T00:10:11.610Z,98.17
2018-12-07T00:12:39.006Z,96.90
2018-12-07T00:15:06.626Z,97.32
2018-12-07T00:17:34.023Z,97.89
2018-12-07T00:20:01.425Z,98.25
2018-12-07T00:22:28.892Z,97.88
2018-12-07T00:24:56.349Z,98.19
2018-12-07T00:27:23.743Z,97.83
2018-12-07T00:29:51.164Z,97.20
2018-12-07T00:32:18.575Z,97.92
2018-12-07T00:34:46.086Z,97.52
2018-12-07T00:37:13.535Z,97.31
2018-12-07T00:39:40.998Z,96.86
2018-12-07T00:42:08.382Z,96.71
2018-12-07T00:44:35.773Z,96.42
2018-12-07T00:47:03.174Z,97.05
2018-12-07T00:49:30.619Z,96.77
2018-12-07T00:51:58.073Z,97.11
2018-12-07T00:54:25.465Z,96.76
2018-12-07T00:56:52.882Z,97.21
2018-12-07T00:59:20.349Z,96.71
2018-12-07T01:01:47.747Z,96.21
2018-12-07T01:04:15.142Z,96.89
2018-12-07T01:06:42.610Z,96.45
2018-12-07T01:09:10.003Z,96.70
2018-12-07T01:11:37.425Z,96.58
2018-12-07T01:14:04.880Z,96.75
2018-12-07T01:16:32.286Z,96.16
2018-12-07T01:18:59.687Z,96.92
2018-12-07T01:21:27.086Z,96.78
2018-12-07T01:23:54.479Z,96.42
2018-12-07T01:26:21.958Z,97.22
2018-12-07T01:28:49.346Z,96.67
2018-12-07T01:31:16.770Z,95.60
2018-12-07T01:33:44.242Z,95.59
2018-12-07T01:36:11.642Z,95.49
2018-12-07T01:38:39.030Z,96.02
2018-12-07T01:41:06.426Z,96.85
2018-12-07T01:43:33.855Z,96.04
2018-12-07T01:46:01.319Z,96.18
2018-12-07T01:48:28.771Z,96.32
2018-12-07T01:50:56.222Z,96.69
2018-12-07T01:53:23.687Z,96.34
2018-12-07T01:55:51.083Z,96.27
2018-12-07T01:58:18.500Z,96.25
2018-12-07T02:00:46.059Z,95.68
2018-12-07T02:03:13.517Z,96.14
2018-12-07T02:05:40.967Z,96.79
2018-12-07T02:08:08.369Z,96.49
2018-12-07T02:10:35.778Z,96.39
2018-12-07T02:13:03.238Z,96.75
2018-12-07T02:15:32.538Z,96.79
2018-12-07T02:17:59.990Z,97.04
2018-12-07T02:20:27.450Z,96.40
2018-12-07T02:22:54.915Z,96.48
2018-12-07T02:25:22.311Z,96.64
2018-12-07T02:27:55.330Z,96.66
2018-12-07T02:30:22.845Z,96.53
2018-12-07T02:32:50.339Z,96.59
2018-12-07T02:35:17.832Z,97.09
2018-12-07T02:37:45.286Z,96.44
2018-12-07T02:40:12.846Z,95.73
2018-12-07T02:42:40.307Z,95.87
2018-12-07T02:45:08.080Z,95.31
2018-12-07T02:47:35.559Z,96.75
2018-12-07T02:50:03.395Z,96.45
2018-12-07T02:52:30.948Z,97.53
2018-12-07T02:54:58.335Z,97.31
2018-12-07T02:57:25.762Z,97.22
2018-12-07T02:59:53.151Z,96.65
2018-12-07T03:02:20.575Z,96.22
2018-12-07T03:04:48.067Z,96.29
2018-12-07T03:07:15.597Z,95.99
2018-12-07T03:09:43.048Z,95.98
2018-12-07T03:12:10.442Z,95.86
2018-12-07T03:14:37.859Z,96.41
2018-12-07T03:17:05.254Z,96.45
2018-12-07T03:19:32.673Z,97.44
2018-12-07T03:22:00.142Z,97.06
2018-12-07T03:24:27.584Z,97.51
2018-12-07T03:26:55.042Z,97.26
2018-12-07T03:29:22.504Z,97.58
2018-12-07T03:31:49.962Z,97.66
2018-12-07T03:34:17.515Z,97.26
2018-12-07T03:36:44.909Z,97.65
2018-12-07T03:39:12.310Z,96.02
2018-12-07T03:41:39.785Z,96.45
2018-12-07T03:44:07.346Z,96.88
2018-12-07T03:46:34.803Z,96.76
2018-12-07T03:49:02.258Z,97.52
2018-12-07T03:51:29.651Z,98.05
2018-12-07T03:53:57.059Z,97.57
2018-12-07T03:56:24.533Z,97.52
2018-12-07T03:58:52.089Z,97.32
2018-12-07T04:01:19.561Z,98.20
2018-12-07T04:03:47.005Z,97.66
2018-12-07T04:06:14.488Z,97.64
2018-12-07T04:08:41.870Z,98.32
2018-12-07T04:11:09.266Z,98.16
2018-12-07T04:13:36.832Z,98.15
2018-12-07T04:16:04.231Z,97.71
2018-12-07T04:18:31.738Z,98.79
2018-12-07T04:20:59.131Z,98.99
2018-12-07T04:23:26.555Z,98.90
2018-12-07T04:25:54.015Z,98.18
2018-12-07T04:28:21.402Z,98.22
2018-12-07T04:30:48.828Z,97.71
2018-12-07T04:33:16.214Z,98.51
2018-12-07T04:35:43.665Z,98.41
2018-12-07T04:38:11.281Z,98.97
2018-12-07T04:40:38.699Z,98.40
2018-12-07T04:43:06.116Z,99.21
2018-12-07T04:45:33.511Z,99.11
2018-12-07T04:48:00.905Z,98.66
2018-12-07T04:50:28.378Z,98.54
2018-12-07T04:52:55.835Z,98.01
2018-12-07T04:55:23.295Z,97.51
2018-12-07T04:57:50.695Z,97.08
2018-12-07T05:00:18.167Z,96.50
2018-12-07T05:02:45.564Z,97.04
2018-12-07T05:05:13.127Z,97.24
2018-12-07T05:07:40.695Z,98.06
2018-12-07T05:10:08.176Z,97.68
2018-12-07T05:12:35.567Z,98.06
2018-12-07T05:15:02.954Z,97.56
2018-12-07T05:17:30.410Z,97.25
2018-12-07T05:19:57.866Z,97.89
2018-12-07T05:22:25.423Z,96.92
2018-12-07T05:24:52.817Z,97.90
2018-12-07T05:27:20.207Z,98.13
2018-12-07T05:29:47.690Z,96.96
2018-12-07T05:32:15.091Z,96.98
2018-12-07T05:34:42.479Z,96.97
2018-12-07T05:37:09.899Z,97.51
2018-12-07T05:39:37.314Z,97.07
2018-12-07T05:42:04.779Z,97.17
2018-12-07T05:44:32.339Z,96.63
2018-12-07T05:46:59.899Z,96.45
2018-12-07T05:49:27.360Z,96.95
2018-12-07T05:51:54.915Z,96.37
2018-12-07T05:54:22.478Z,97.00
2018-12-07T05:56:49.871Z,96.25
2018-12-07T05:59:17.291Z,97.28
2018-12-07T06:01:44.670Z,96.57
2018-12-07T06:04:12.134Z,96.48
2018-12-07T06:06:39.556Z,96.77
2018-12-07T06:09:07.005Z,97.08
2018-12-07T06:11:34.467Z,97.02
2018-12-07T06:14:01.927Z,97.58
2018-12-07T06:16:29.383Z,96.94
2018-12-07T06:18:56.835Z,97.27
2018-12-07T06:21:24.294Z,96.57
2018-12-07T06:23:51.690Z,97.61
2018-12-07T06:26:19.071Z,96.64
2018-12-07T06:28:46.465Z,96.46
2018-12-07T06:31:13.939Z,96.85
2018-12-07T06:33:41.331Z,96.63
2018-12-07T06:36:08.731Z,96.78
2018-12-07T06:38:36.129Z,96.47
2018-12-07T06:41:03.645Z,97.13
2018-12-07T06:43:31.022Z,97.03
2018-12-07T06:45:58.463Z,97.17
2018-12-07T06:48:25.839Z,98.04
2018-12-07T06:50:53.271Z,98.08
2018-12-07T06:53:20.683Z,96.86
2018-12-07T06:55:48.199Z,97.36
2018-12-07T06:58:15.648Z,96.67
2018-12-07T07:00:43.034Z,97.48
2018-12-07T07:03:10.438Z,97.46
2018-12-07T07:05:37.831Z,96.47
2018-12-07T07:08:05.226Z,96.80
2018-12-07T07:10:32.622Z,97.59
2018-12-07T07:13:00.018Z,97.54
2018-12-07T07:15:27.442Z,97.92
2018-12-07T07:17:54.891Z,97.53
2018-12-07T07:20:22.443Z,97.24
2018-12-07T07:22:49.911Z,97.25
2018-12-07T07:25:17.362Z,97.60
2018-12-07T07:27:44.775Z,96.94
2018-12-07T07:30:12.279Z,97.33
2018-12-07T07:32:39.667Z,97.87
2018-12-07T07:35:07.230Z,97.30
2018-12-07T07:37:34.646Z,98.11
2018-12-07T07:40:02.114Z,98.61
2018-12-07T07:42:29.586Z,97.31
2018-12-07T07:44:56.998Z,97.41
2018-12-07T07:47:24.479Z,96.90
2018-12-07T07:49:51.934Z,97.11
2018-12-07T07:52:19.403Z,97.13
2018-12-07T07:54:46.848Z,97.19
2018-12-07T07:57:14.309Z,97.54
2018-12-07T07:59:41.762Z,98.37
2018-12-07T08:02:09.223Z,97.25
2018-12-07T08:04:36.674Z,97.55
2018-12-07T08:07:04.132Z,96.55
2018-12-07T08:09:31.591Z,97.04
2018-12-07T08:11:58.974Z,96.69
2018-12-07T08:14:26.449Z,97.78
2018-12-07T08:16:53.863Z,97.50
2018-12-07T08:19:21.320Z,97.39
2018-12-07T08:21:48.774Z,97.82
2018-12-07T08:24:16.231Z,97.79
2018-12-07T08:26:43.614Z,98.06
2018-12-07T08:29:11.047Z,97.54
2018-12-07T08:31:38.507Z,97.19
2018-12-07T08:34:05.902Z,97.53
2018-12-07T08:36:33.310Z,96.30
2018-12-07T08:39:00.775Z,96.65
2018-12-07T08:41:28.222Z,96.37
2018-12-07T08:43:55.627Z,96.68
2018-12-07T08:46:23.034Z,97.00
2018-12-07T08:48:50.495Z,97.04
2018-12-07T08:51:17.883Z,97.03
2018-12-07T08:53:45.302Z,97.37
2018-12-07T08:56:12.763Z,96.68
2018-12-07T08:58:40.235Z,97.10
2018-12-07T09:01:07.683Z,97.33
2018-12-07T09:03:35.247Z,96.98
2018-12-07T09:06:02.811Z,97.26
2018-12-07T09:08:30.258Z,97.54
2018-12-07T09:10:57.707Z,97.10
2018-12-07T09:13:25.170Z,97.85
2018-12-07T09:15:52.627Z,97.88
2018-12-07T09:18:20.086Z,97.31
2018-12-07T09:20:53.745Z,97.75
2018-12-07T09:23:16.944Z,97.38
2018-12-07T09:25:44.399Z,97.72
2018-12-07T09:28:11.782Z,97.95
2018-12-07T09:30:39.315Z,97.42
2018-12-07T09:33:06.707Z,97.41
2018-12-07T09:35:34.207Z,97.77
2018-12-07T09:38:01.686Z,97.39
2018-12-07T09:40:29.140Z,97.67
2018-12-07T09:42:56.607Z,97.34
2018-12-07T09:45:24.010Z,98.13
2018-12-07T09:47:51.394Z,97.29
2018-12-07T09:50:18.935Z,95.94
2018-12-07T09:52:46.323Z,96.52
2018-12-07T09:55:13.789Z,96.01
2018-12-07T09:57:41.270Z,96.83
2018-12-07T10:00:08.682Z,96.61
2018-12-07T10:02:36.071Z,96.89
2018-12-07T10:05:04.171Z,96.53
2018-12-07T10:07:31.558Z,97.08
2018-12-07T10:09:58.947Z,97.07
2018-12-07T10:12:26.339Z,97.16
2018-12-07T10:14:53.714Z,96.52
2018-12-07T10:17:21.106Z,96.59
2018-12-07T10:19:48.559Z,96.74
2018-12-07T10:22:15.951Z,97.18
2018-12-07T10:24:43.344Z,97.17
2018-12-07T10:27:10.834Z,96.98
2018-12-07T10:29:38.286Z,96.08
2018-12-07T10:32:05.807Z,96.52
2018-12-07T10:34:33.213Z,96.24
2018-12-07T10:37:00.589Z,96.93
2018-12-07T10:39:28.050Z,96.67
2018-12-07T10:41:55.515Z,96.50
2018-12-07T10:44:22.897Z,96.66
2018-12-07T10:46:50.287Z,97.47
2018-12-07T10:49:17.745Z,96.34
2018-12-07T10:51:45.203Z,96.95
2018-12-07T10:54:12.658Z,97.28
2018-12-07T10:56:40.062Z,97.90
2018-12-07T10:59:07.447Z,97.84
2018-12-07T11:01:40.710Z,97.59
2018-12-07T11:04:13.855Z,97.11
2018-12-07T11:06:46.947Z,96.66
2018-12-07T11:09:20.028Z,97.22
2018-12-07T11:11:49.415Z,96.96
2018-12-07T11:14:18.704Z,96.63
2018-12-07T11:16:51.686Z,97.13
2018-12-07T11:22:42.890Z,95.60
2018-12-07T11:25:16.602Z,96.56
2018-12-07T11:27:49.630Z,96.57
2018-12-07T11:30:22.643Z,96.93
2018-12-07T11:32:55.834Z,96.82
2018-12-07T11:35:25.178Z,96.87
2018-12-07T11:37:52.679Z,96.72
2018-12-07T11:40:20.070Z,95.95
2018-12-07T11:42:47.478Z,96.32
2018-12-07T11:45:14.955Z,95.80
2018-12-07T11:47:42.410Z,95.92
2018-12-07T11:50:10.377Z,95.17
2018-12-07T11:52:37.807Z,95.99
2018-12-07T11:55:05.435Z,96.40
2018-12-07T11:57:32.855Z,96.75
2018-12-07T12:00:00.312Z,96.49
2018-12-07T12:02:27.702Z,97.42
2018-12-07T12:04:55.092Z,97.15
2018-12-07T12:07:22.491Z,96.92
2018-12-07T12:09:49.871Z,96.04
2018-12-07T12:12:17.284Z,96.54
2018-12-07T12:14:44.742Z,96.63
2018-12-07T12:17:12.198Z,96.57
2018-12-07T12:19:39.659Z,95.96
2018-12-07T12:22:07.915Z,95.37
2018-12-07T12:24:35.598Z,94.98
2018-12-07T12:27:03.039Z,94.93
2018-12-07T12:29:30.422Z,94.79
2018-12-07T12:31:57.807Z,94.40
2018-12-07T12:34:25.232Z,94.41
2018-12-07T12:36:52.684Z,95.12
2018-12-07T12:39:20.075Z,94.78
2018-12-07T12:41:47.496Z,94.89
2018-12-07T12:44:15.063Z,95.46
2018-12-07T12:46:42.511Z,95.62
2018-12-07T12:49:09.894Z,95.38
2018-12-07T12:51:37.322Z,95.20
2018-12-07T12:54:04.782Z,95.31
2018-12-07T12:56:32.233Z,95.34
2018-12-07T12:58:59.631Z,95.26
2018-12-07T13:01:27.156Z,95.36
2018-12-07T13:03:54.602Z,95.76
2018-12-07T13:06:22.071Z,95.63
2018-12-07T13:08:49.519Z,95.69
2018-12-07T13:11:16.910Z,95.10
2018-12-07T13:13:44.382Z,95.60
2018-12-07T13:16:11.843Z,96.19
2018-12-07T13:18:39.235Z,95.85
2018-12-07T13:21:06.708Z,95.73
2018-12-07T13:23:34.167Z,95.58
2018-12-07T13:26:01.563Z,95.53
2018-12-07T13:28:28.979Z,94.87
2018-12-07T13:30:56.367Z,95.00
2018-12-07T13:33:23.904Z,94.41
2018-12-07T13:35:51.259Z,94.79
2018-12-07T13:38:18.702Z,94.07
2018-12-07T13:40:46.165Z,93.65
2018-12-07T13:43:13.683Z,93.30
2018-12-07T13:45:41.211Z,93.22
2018-12-07T13:48:08.945Z,93.09
2018-12-07T13:50:40.826Z,93.03
2018-12-07T13:53:08.445Z,93.10
2018-12-07T13:55:36.746Z,93.24
2018-12-07T13:58:04.666Z,93.96
2018-12-07T14:00:32.279Z,93.86
2018-12-07T14:03:00.019Z,93.54
2018-12-07T14:05:32.258Z,93.57
2018-12-07T14:07:57.044Z,93.96
2018-12-07T14:10:24.652Z,93.50
2018-12-07T14:12:52.214Z,93.37
2018-12-07T14:15:19.904Z,93.02
2018-12-07T14:17:47.540Z,92.45
2018-12-07T14:20:15.258Z,93.42
2018-12-07T14:22:42.674Z,93.85
2018-12-07T14:25:10.191Z,92.88
2018-12-07T14:27:37.842Z,93.22
2018-12-07T14:30:06.980Z,92.11
2018-12-07T14:32:34.553Z,92.14
2018-12-07T14:35:02.162Z,91.89
2018-12-07T14:37:29.866Z,90.50
2018-12-07T14:39:57.443Z,91.11
2018-12-07T14:42:25.039Z,91.90
2018-12-07T14:44:52.451Z,91.38
2018-12-07T14:47:20.048Z,92.14
2018-12-07T14:49:47.736Z,90.55
2018-12-07T14:52:15.434Z,90.59
2018-12-07T14:54:43.064Z,90.95
2018-12-07T14:57:10.682Z,91.53
2018-12-07T14:59:38.299Z,89.91
2018-12-07T15:02:06.200Z,90.71
2018-12-07T15:04:33.738Z,90.89
2018-12-07T15:07:01.303Z,91.50
2018-12-07T15:09:28.910Z,90.51
2018-12-07T15:11:56.528Z,90.62
2018-12-07T15:14:24.062Z,91.08
2018-12-07T15:16:51.507Z,89.39
2018-12-07T15:19:19.202Z,88.77
2018-12-07T15:21:46.908Z,89.48
2018-12-07T15:24:14.421Z,89.46
2018-12-07T15:26:42.010Z,89.64
2018-12-07T15:29:09.723Z,89.39
2018-12-07T15:31:37.434Z,89.53
2018-12-07T15:34:04.885Z,90.35
2018-12-07T15:36:32.560Z,90.07
2018-12-07T15:39:00.101Z,89.83
2018-12-07T15:41:27.746Z,89.17
2018-12-07T15:43:55.421Z,89.37
2018-12-07T15:46:23.546Z,89.09
2018-12-07T15:48:51.268Z,89.04
2018-12-07T15:51:18.718Z,90.06
2018-12-07T15:53:46.298Z,90.02
2018-12-07T15:56:13.874Z,89.34
2018-12-07T15:58:41.281Z,90.02
2018-12-07T16:01:08.974Z,89.72
2018-12-07T16:03:36.587Z,89.36
2018-12-07T16:06:04.002Z,90.20
2018-12-07T16:08:31.501Z,91.37
2018-12-07T16:10:58.961Z,91.02
2018-12-07T16:13:26.625Z,90.63
2018-12-07T16:15:54.201Z,90.55
2018-12-07T16:18:21.747Z,90.10
2018-12-07T16:20:49.214Z,90.65
2018-12-07T16:23:16.676Z,90.32
2018-12-07T16:25:44.335Z,89.80
2018-12-07T16:28:11.828Z,90.23
2018-12-07T16:30:39.565Z,90.07
2018-12-07T16:33:07.328Z,89.18
2018-12-07T16:35:35.014Z,89.55
2018-12-07T16:38:02.541Z,88.71
2018-12-07T16:40:30.211Z,89.51
2018-12-07T16:42:57.887Z,89.47
2018-12-07T16:45:25.413Z,89.72
2018-12-07T16:47:53.125Z,89.27
2018-12-07T16:50:20.665Z,90.75
2018-12-07T16:52:48.293Z,91.30
2018-12-07T16:55:16.136Z,92.11
2018-12-07T16:57:43.667Z,91.30
2018-12-07T17:00:11.373Z,91.38
2018-12-07T17:02:39.159Z,92.38
2018-12-07T17:05:07.789Z,92.94
2018-12-07T17:07:35.270Z,92.76
2018-12-07T17:10:03.778Z,92.70
2018-12-07T17:12:31.392Z,94.54
2018-12-07T17:14:59.023Z,94.62
2018-12-07T17:17:26.833Z,94.05
2018-12-07T17:19:54.408Z,94.01
2018-12-07T17:22:21.957Z,94.23
2018-12-07T17:24:49.725Z,93.59
2018-12-07T17:27:18.117Z,93.83
2018-12-07T17:29:45.882Z,92.96
2018-12-07T17:32:13.431Z,93.62
2018-12-07T17:34:40.850Z,95.09
2018-12-07T17:37:08.528Z,94.26
2018-12-07T17:39:36.284Z,94.48
2018-12-07T17:42:03.959Z,95.22
2018-12-07T17:44:31.551Z,95.34
2018-12-07T17:46:59.009Z,94.67
2018-12-07T17:49:26.489Z,95.55
2018-12-07T17:51:54.060Z,94.30
2018-12-07T17:54:21.727Z,94.66
2018-12-07T17:56:49.418Z,93.87
2018-12-07T17:59:17.183Z,94.09
2018-12-07T18:01:44.675Z,93.49
2018-12-07T18:04:12.847Z,93.20
2018-12-07T18:06:40.334Z,93.30
2018-12-07T18:09:07.874Z,92.85
2018-12-07T18:11:35.628Z,92.42
2018-12-07T18:14:03.512Z,92.40
2018-12-07T18:16:31.383Z,92.48
2018-12-07T18:18:58.895Z,93.34
2018-12-07T18:21:26.583Z,94.04
2018-12-07T18:23:54.178Z,93.05
2018-12-07T18:26:21.630Z,92.26
2018-12-07T18:28:49.395Z,93.28
2018-12-07T18:31:16.969Z,93.57
2018-12-07T18:33:44.575Z,93.79
2018-12-07T18:36:12.241Z,93.86
2018-12-07T18:38:39.866Z,94.07
2018-12-07T18:41:07.298Z,93.41
2018-12-07T18:43:34.799Z,92.92
2018-12-07T18:46:02.438Z,93.37
2018-12-07T18:48:29.946Z,92.98
2018-12-07T18:50:57.541Z,93.38
2018-12-07T18:53:24.982Z,93.43
2018-12-07T18:55:52.580Z,94.18
2018-12-07T18:58:20.309Z,94.31
2018-12-07T19:00:48.174Z,93.08
2018-12-07T19:03:15.751Z,94.17
2018-12-07T19:05:43.342Z,93.41
2018-12-07T19:08:11.282Z,94.77
2018-12-07T19:10:39.094Z,94.15
2018-12-07T19:13:06.595Z,94.95
2018-12-07T19:15:34.207Z,95.12
2018-12-07T19:18:01.671Z,95.30
2018-12-07T19:20:29.214Z,95.36
2018-12-07T19:22:57.097Z,95.47
2018-12-07T19:25:24.777Z,95.52
2018-12-07T19:27:52.537Z,94.78
2018-12-07T19:30:20.113Z,94.73
2018-12-07T19:32:48.022Z,95.02
2018-12-07T19:35:15.850Z,95.66
2018-12-07T19:37:43.524Z,95.24
2018-12-07T19:40:11.051Z,94.86
2018-12-07T19:42:38.506Z,94.91
2018-12-07T19:45:07.865Z,95.36
2018-12-07T19:47:35.352Z,95.81
2018-12-07T19:50:03.755Z,95.86
2018-12-07T19:52:31.768Z,95.30
2018-12-07T19:54:59.433Z,95.22
2018-12-07T19:57:26.866Z,95.29
2018-12-07T19:59:54.503Z,95.34
2018-12-07T20:02:22.004Z,95.54
2018-12-07T20:04:49.679Z,96.07
2018-12-07T20:07:17.235Z,95.20
2018-12-07T20:09:44.666Z,92.01
2018-12-07T20:12:12.127Z,92.04
2018-12-07T20:14:39.583Z,92.30
2018-12-07T20:17:07.006Z,90.89
2018-12-07T20:19:34.658Z,92.35
2018-12-07T20:22:02.297Z,93.75
2018-12-07T20:24:29.799Z,93.87
2018-12-07T20:26:57.775Z,93.27
2018-12-07T20:29:25.791Z,93.90
2018-12-07T20:31:53.304Z,93.87
2018-12-07T20:34:20.763Z,94.76
2018-12-07T20:36:48.188Z,95.03
2018-12-07T20:39:15.756Z,94.78
2018-12-07T20:41:43.275Z,94.17
2018-12-07T20:44:10.940Z,95.82
2018-12-07T20:46:38.379Z,95.69
2018-12-07T20:49:05.899Z,96.70
2018-12-07T20:51:33.767Z,95.46
2018-12-07T20:54:01.223Z,94.62
2018-12-07T20:56:28.771Z,94.01
2018-12-07T20:58:56.377Z,94.73
2018-12-07T21:01:24.065Z,94.54
2018-12-07T21:04:03.973Z,94.65
2018-12-07T21:13:30.213Z,94.12
2018-12-07T21:15:59.103Z,94.11
2018-12-07T21:18:26.607Z,93.90
2018-12-07T21:20:54.384Z,94.25
2018-12-07T21:23:21.955Z,93.58
2018-12-07T21:25:49.344Z,93.69
2018-12-07T21:28:16.817Z,94.63
2018-12-07T21:30:47.697Z,93.68
2018-12-07T21:33:16.178Z,94.77
2018-12-07T21:35:47.791Z,94.02
2018-12-07T21:38:15.171Z,94.76
2018-12-07T21:40:42.569Z,94.68
2018-12-07T21:43:10.010Z,94.33
2018-12-07T21:45:37.683Z,94.33
2018-12-07T21:48:23.000Z,93.56
2018-12-07T21:50:55.934Z,93.17
2018-12-07T21:53:23.573Z,93.97
2018-12-07T21:55:51.123Z,93.13
2018-12-07T21:58:18.847Z,93.24
2018-12-07T22:00:46.433Z,93.16
2018-12-07T22:03:14.028Z,92.54
2018-12-07T22:05:41.536Z,91.29
2018-12-07T22:08:09.337Z,92.34
2018-12-07T22:10:36.957Z,91.54
2018-12-07T22:13:04.667Z,91.71
2018-12-07T22:15:32.293Z,92.05
2018-12-07T22:17:59.916Z,90.90
2018-12-07T22:20:27.407Z,91.19
2018-12-07T22:22:54.811Z,90.73
2018-12-07T22:25:22.508Z,90.69
2018-12-07T22:27:50.172Z,90.97
2018-12-07T22:30:17.825Z,90.85
2018-12-07T22:32:45.521Z,90.12
2018-12-07T22:35:12.954Z,89.94
2018-12-07T22:37:40.509Z,89.69
2018-12-07T22:40:07.974Z,89.95
2018-12-07T22:42:35.718Z,90.09
2018-12-07T22:45:03.347Z,90.05
2018-12-07T22:47:31.118Z,90.38
2018-12-07T22:49:58.627Z,88.91
2018-12-07T22:52:26.015Z,89.35
2018-12-07T22:54:53.406Z,89.46
2018-12-07T22:57:20.790Z,89.16
2018-12-07T22:59:48.270Z,88.97
2018-12-07T23:02:16.163Z,89.03
2018-12-07T23:04:43.635Z,87.68
2018-12-07T23:07:11.030Z,88.58
2018-12-07T23:09:38.414Z,87.46
2018-12-07T23:12:05.856Z,86.90
2018-12-07T23:14:33.338Z,87.01
2018-12-07T23:17:00.759Z,86.59
2018-12-07T23:19:28.143Z,86.48
2018-12-07T23:21:55.577Z,86.14
2018-12-07T23:24:22.946Z,87.41
2018-12-07T23:26:50.339Z,87.25
2018-12-07T23:29:20.910Z,87.58
2018-12-07T23:31:48.305Z,87.01
2018-12-07T23:34:15.700Z,86.87
2018-12-07T23:36:43.174Z,87.09
2018-12-07T23:39:10.577Z,86.50
2018-12-07T23:41:38.114Z,86.13
2018-12-07T23:44:05.503Z,87.01
2018-12-07T23:46:32.913Z,87.06
2018-12-07T23:49:00.378Z,86.41
2018-12-07T23:51:27.762Z,87.21
2018-12-07T23:53:55.174Z,86.94
2018-12-07T23:56:22.559Z,87.00
2018-12-07T23:58:49.996Z,86.43
